Time;durP1;ratioP1;P1;durP2;ratioP2;P2;SDS_P1;SDS_P2;PMS_P1;PMS_P2;Temp;Humidity;BMP_temperature;BMP_pressure;BME280_temperature;BME280_humidity;BME280_pressure;Samples;Min_cycle;Max_cycle;Signal;HPM_P1;HPM_P2
2023/05/04 00:01:18;;;;;;;12.07;5.90;;;;;;;-146.18;100.00;67994.34;10060696;28;20082;-68
2023/05/04 00:06:15;;;;;;;8.50;5.65;;;;;;;-146.18;100.00;67994.34;10055590;28;20055;-68
2023/05/04 00:11:11;;;;;;;11.00;5.40;;;;;;;-146.18;100.00;67994.34;10050832;28;20059;-69
2023/05/04 00:16:08;;;;;;;16.48;5.63;;;;;;;-146.18;100.00;67994.34;10064324;28;20418;-70
2023/05/04 00:21:06;;;;;;;13.38;5.90;;;;;;;-146.18;100.00;67994.34;10061007;28;20055;-70
2023/05/04 00:26:03;;;;;;;9.70;5.50;;;;;;;-146.18;100.00;67994.34;10049174;28;20506;-70
2023/05/04 00:30:59;;;;;;;9.93;6.07;;;;;;;-146.18;100.00;67994.34;10021589;28;20074;-70
2023/05/04 00:35:56;;;;;;;10.90;5.78;;;;;;;-146.18;100.00;67994.34;10029298;28;20075;-68
2023/05/04 00:40:52;;;;;;;11.00;6.78;;;;;;;-146.18;100.00;67994.34;10021399;28;20067;-68
2023/05/04 00:45:49;;;;;;;13.50;5.28;;;;;;;-146.18;100.00;67994.34;10033760;28;20055;-69
2023/05/04 00:50:45;;;;;;;10.85;5.63;;;;;;;-146.18;100.00;67994.34;10068092;28;20054;-70
2023/05/04 00:55:41;;;;;;;7.30;4.97;;;;;;;-146.18;100.00;67994.34;10072535;28;20417;-71
2023/05/04 01:00:38;;;;;;;8.10;5.80;;;;;;;-146.18;100.00;67994.34;10065577;28;20055;-71
2023/05/04 01:05:41;;;;;;;13.05;6.80;;;;;;;-146.18;100.00;67994.34;10048773;28;20058;-70
2023/05/04 01:10:59;;;;;;;9.60;6.65;;;;;;;-146.18;100.00;67994.34;10067213;28;20544;-70
2023/05/04 01:15:56;;;;;;;9.10;5.30;;;;;;;-146.18;100.00;67994.34;10030304;28;20052;-72
2023/05/04 01:20:52;;;;;;;11.80;6.30;;;;;;;-146.18;100.00;67994.34;10028640;28;20150;-70
2023/05/04 01:25:55;;;;;;;11.05;5.97;;;;;;;-146.18;100.00;67994.34;10065044;28;20509;-69
2023/05/04 01:30:58;;;;;;;10.40;5.88;;;;;;;-146.18;100.00;67994.34;10059245;28;20426;-69
2023/05/04 01:35:55;;;;;;;8.80;5.63;;;;;;;-146.18;100.00;67994.34;10032316;28;20056;-70
2023/05/04 01:40:51;;;;;;;10.75;5.80;;;;;;;-146.18;100.00;67994.34;10029597;29;20426;-70
2023/05/04 01:45:48;;;;;;;10.45;6.13;;;;;;;-146.18;100.00;67994.34;10023638;28;20047;-68
2023/05/04 01:50:45;;;;;;;16.40;7.05;;;;;;;-146.18;100.00;67994.34;10035283;28;20055;-70
2023/05/04 01:55:41;;;;;;;10.30;5.50;;;;;;;-146.18;100.00;67994.34;10037067;28;20055;-69
2023/05/04 02:00:40;;;;;;;9.95;6.00;;;;;;;-146.18;100.00;67994.34;10061092;28;20148;-70
2023/05/04 02:05:37;;;;;;;12.00;6.18;;;;;;;-146.18;100.00;67994.34;10062856;28;20066;-70
2023/05/04 02:10:33;;;;;;;10.88;7.05;;;;;;;-146.18;100.00;67994.34;10061459;28;20576;-70
2023/05/04 02:15:30;;;;;;;11.93;5.68;;;;;;;-146.18;100.00;67994.34;10037768;28;20081;-70
2023/05/04 02:20:27;;;;;;;9.63;5.53;;;;;;;-146.18;100.00;67994.34;10070273;28;20846;-71
2023/05/04 02:25:23;;;;;;;16.08;6.53;;;;;;;-146.18;100.00;67994.34;10067750;28;20066;-71
2023/05/04 02:30:20;;;;;;;9.88;5.50;;;;;;;-146.18;100.00;67994.34;10057808;28;20058;-71
2023/05/04 02:35:17;;;;;;;8.23;5.35;;;;;;;-146.18;100.00;67994.34;10030173;28;20044;-69
2023/05/04 02:40:14;;;;;;;10.30;5.82;;;;;;;-146.18;100.00;67994.34;10025100;28;20048;-70
2023/05/04 02:45:11;;;;;;;10.52;5.78;;;;;;;-146.18;100.00;67994.34;10052103;28;20658;-70
2023/05/04 02:50:08;;;;;;;15.93;6.50;;;;;;;-146.18;100.00;67994.34;10070707;28;20654;-70
2023/05/04 02:55:05;;;;;;;14.00;6.00;;;;;;;-146.18;100.00;67994.34;10065534;28;20255;-69
2023/05/04 03:00:04;;;;;;;12.25;6.35;;;;;;;-146.18;100.00;67994.34;10063720;28;20078;-69
2023/05/04 03:05:01;;;;;;;10.13;5.65;;;;;;;-146.18;100.00;67994.34;10058736;29;20051;-71
2023/05/04 03:10:01;;;;;;;9.05;5.47;;;;;;;-146.18;100.00;67994.34;10055538;28;20508;-72
2023/05/04 03:14:57;;;;;;;13.27;6.35;;;;;;;-146.18;100.00;67994.34;10064309;28;20425;-72
2023/05/04 03:19:54;;;;;;;12.13;6.45;;;;;;;-146.18;100.00;67994.34;10060849;28;20048;-71
2023/05/04 03:24:50;;;;;;;11.85;6.72;;;;;;;-146.18;100.00;67994.34;10054781;28;20054;-71
2023/05/04 03:29:47;;;;;;;13.27;7.82;;;;;;;-146.18;100.00;67994.34;10063693;28;20047;-69
2023/05/04 03:34:44;;;;;;;13.25;7.95;;;;;;;-146.18;100.00;67994.34;10062478;28;20395;-72
2023/05/04 03:39:41;;;;;;;13.68;8.57;;;;;;;-146.18;100.00;67994.34;10051327;28;20502;-70
2023/05/04 03:44:37;;;;;;;11.45;7.55;;;;;;;-146.18;100.00;67994.34;10060092;28;20043;-70
2023/05/04 03:49:34;;;;;;;11.40;7.25;;;;;;;-146.18;100.00;67994.34;10062005;28;20540;-69
2023/05/04 03:54:30;;;;;;;10.13;6.90;;;;;;;-146.18;100.00;67994.34;10012122;28;20107;-69
2023/05/04 03:59:27;;;;;;;16.92;7.60;;;;;;;-146.18;100.00;67994.34;10007967;28;20048;-70
2023/05/04 04:04:23;;;;;;;14.40;7.88;;;;;;;-146.18;100.00;67994.34;10015427;28;20040;-69
2023/05/04 04:09:20;;;;;;;11.60;7.90;;;;;;;-146.18;100.00;67994.34;10021187;28;20051;-71
2023/05/04 04:14:16;;;;;;;12.60;7.53;;;;;;;-146.18;100.00;67994.34;10021428;28;20048;-70
2023/05/04 04:19:13;;;;;;;14.43;8.18;;;;;;;-146.18;100.00;67994.34;10021425;28;20424;-70
2023/05/04 04:24:10;;;;;;;11.43;6.85;;;;;;;-146.18;100.00;67994.34;10056253;28;20071;-70
2023/05/04 04:29:06;;;;;;;11.73;7.72;;;;;;;-146.18;100.00;67994.34;10055293;28;20109;-69
2023/05/04 04:34:02;;;;;;;9.73;7.25;;;;;;;-146.18;100.00;67994.34;10058944;28;20043;-75
2023/05/04 04:38:59;;;;;;;14.52;7.85;;;;;;;-146.18;100.00;67994.34;10061708;28;20424;-75
2023/05/04 04:43:56;;;;;;;11.70;7.90;;;;;;;-146.18;100.00;67994.34;10048353;28;20048;-72
2023/05/04 04:48:53;;;;;;;13.05;7.78;;;;;;;-146.18;100.00;67994.34;10050111;28;20127;-74
2023/05/04 04:53:51;;;;;;;13.52;8.70;;;;;;;-146.18;100.00;67994.34;10044123;28;20075;-75
2023/05/04 04:58:48;;;;;;;16.42;8.68;;;;;;;-146.18;100.00;67994.34;10057242;28;20136;-77
2023/05/04 05:03:44;;;;;;;11.95;8.85;;;;;;;-146.18;100.00;67994.34;10052092;28;20134;-75
2023/05/04 05:08:42;;;;;;;16.58;9.02;;;;;;;-146.18;100.00;67994.34;10026696;28;20055;-75
2023/05/04 05:13:39;;;;;;;12.05;9.13;;;;;;;-146.18;100.00;67994.34;10025543;28;20048;-71
2023/05/04 05:18:35;;;;;;;12.88;8.65;;;;;;;-146.18;100.00;67994.34;10021375;28;20458;-71
2023/05/04 05:23:34;;;;;;;12.73;9.23;;;;;;;-146.18;100.00;67994.34;10023730;28;20050;-71
2023/05/04 05:28:31;;;;;;;13.38;8.32;;;;;;;-146.18;100.00;67994.34;10018968;29;20075;-72
2023/05/04 05:33:27;;;;;;;18.95;7.60;;;;;;;-146.18;100.00;67994.34;10018487;29;20134;-71
2023/05/04 05:38:25;;;;;;;11.27;7.45;;;;;;;-146.18;100.00;67994.34;10053606;28;20055;-70
2023/05/04 05:43:22;;;;;;;13.02;7.38;;;;;;;-146.18;100.00;67994.34;10054707;28;20044;-70
2023/05/04 05:48:18;;;;;;;13.35;7.38;;;;;;;-146.18;100.00;67994.34;10050963;28;20076;-70
2023/05/04 05:53:17;;;;;;;8.85;7.32;;;;;;;-146.18;100.00;67994.34;10034821;28;20726;-70
2023/05/04 05:58:14;;;;;;;9.13;6.53;;;;;;;-146.18;100.00;67994.34;10047991;28;20049;-70
2023/05/04 06:03:10;;;;;;;8.95;5.70;;;;;;;-146.18;100.00;67994.34;10057343;28;20078;-70
2023/05/04 06:08:07;;;;;;;10.20;7.05;;;;;;;-146.18;100.00;67994.34;10059999;28;20629;-70
2023/05/04 06:13:03;;;;;;;8.40;6.20;;;;;;;-146.18;100.00;67994.34;10056791;28;20071;-70
2023/05/04 06:17:59;;;;;;;12.68;7.30;;;;;;;-146.18;100.00;67994.34;10033471;28;20051;-70
2023/05/04 06:22:56;;;;;;;10.68;6.50;;;;;;;-146.18;100.00;67994.34;10060665;28;20082;-70
2023/05/04 06:27:52;;;;;;;9.88;6.72;;;;;;;-146.18;100.00;67994.34;10063625;28;20079;-70
2023/05/04 06:32:49;;;;;;;8.70;5.60;;;;;;;-146.18;100.00;67994.34;10056274;28;20074;-71
2023/05/04 06:37:46;;;;;;;8.88;5.50;;;;;;;-146.18;100.00;67994.34;10061057;28;20055;-70
2023/05/04 06:42:42;;;;;;;9.20;6.50;;;;;;;-146.18;100.00;67994.34;10062714;28;20094;-70
2023/05/04 06:47:39;;;;;;;10.23;5.90;;;;;;;-146.18;100.00;67994.34;10040607;28;20067;-70
2023/05/04 06:52:40;;;;;;;11.48;5.60;;;;;;;-146.18;100.00;67994.34;10028993;28;20052;-70
2023/05/04 06:57:36;;;;;;;10.73;6.45;;;;;;;-146.18;100.00;67994.34;10020362;28;20511;-71
2023/05/04 07:02:33;;;;;;;8.43;5.90;;;;;;;-146.18;100.00;67994.34;10029199;28;20502;-71
2023/05/04 07:07:29;;;;;;;9.23;5.25;;;;;;;-146.18;100.00;67994.34;10050556;28;20048;-71
2023/05/04 07:12:26;;;;;;;9.18;5.07;;;;;;;-146.18;100.00;67994.34;10061700;28;20152;-70
2023/05/04 07:17:24;;;;;;;8.68;5.15;;;;;;;-146.18;100.00;67994.34;10057245;28;20486;-70
2023/05/04 07:22:21;;;;;;;9.60;5.40;;;;;;;-146.18;100.00;67994.34;10045747;28;20051;-69
2023/05/04 07:27:17;;;;;;;10.07;5.75;;;;;;;-146.18;100.00;67994.34;10031584;28;20445;-70
2023/05/04 07:32:13;;;;;;;9.80;5.50;;;;;;;-146.18;100.00;67994.34;10023402;28;20465;-70
2023/05/04 07:37:11;;;;;;;10.38;5.50;;;;;;;-146.18;100.00;67994.34;10039765;28;20070;-70
2023/05/04 07:42:10;;;;;;;14.90;5.82;;;;;;;-146.18;100.00;67994.34;10072875;28;20135;-71
2023/05/04 07:47:07;;;;;;;9.95;5.50;;;;;;;-146.18;100.00;67994.34;10059629;28;20075;-71
2023/05/04 07:52:03;;;;;;;9.65;6.10;;;;;;;-146.18;100.00;67994.34;10038358;28;20073;-70
2023/05/04 07:57:03;;;;;;;8.48;5.78;;;;;;;-146.18;100.00;67994.34;10013929;28;20529;-71
2023/05/04 08:01:59;;;;;;;9.23;5.97;;;;;;;-146.18;100.00;67994.34;10038218;28;20047;-71
2023/05/04 08:06:56;;;;;;;12.98;6.05;;;;;;;-146.18;100.00;67994.34;10061442;28;20051;-70
2023/05/04 08:11:52;;;;;;;6.75;5.63;;;;;;;-146.18;100.00;67994.34;10038240;28;20060;-71
2023/05/04 08:16:49;;;;;;;8.80;5.72;;;;;;;-146.18;100.00;67994.34;10041301;28;20053;-70
2023/05/04 08:21:45;;;;;;;8.68;5.82;;;;;;;-146.18;100.00;67994.34;10023958;28;20664;-71
2023/05/04 08:26:42;;;;;;;7.65;5.53;;;;;;;-146.18;100.00;67994.34;10022166;28;20048;-70
2023/05/04 08:31:45;;;;;;;12.75;5.80;;;;;;;-146.18;100.00;67994.34;10020629;28;20044;-71
2023/05/04 08:36:41;;;;;;;15.38;7.60;;;;;;;-146.18;100.00;67994.34;10028426;28;20106;-71
2023/05/04 08:41:39;;;;;;;8.68;6.00;;;;;;;-146.18;100.00;67994.34;10023890;28;20070;-70
2023/05/04 08:46:56;;;;;;;6.43;5.40;;;;;;;-146.18;100.00;67994.34;10025924;28;20046;-71
2023/05/04 08:51:53;;;;;;;7.15;4.80;;;;;;;-146.18;100.00;67994.34;10065534;28;20070;-70
2023/05/04 08:56:51;;;;;;;7.55;5.82;;;;;;;-146.18;100.00;67994.34;10064745;28;20071;-71
2023/05/04 09:01:51;;;;;;;9.80;5.13;;;;;;;-146.18;100.00;67994.34;10062119;28;20055;-70
2023/05/04 09:06:48;;;;;;;8.65;6.13;;;;;;;-146.18;100.00;67994.34;10047922;28;20039;-70
2023/05/04 09:11:45;;;;;;;8.40;5.13;;;;;;;-146.18;100.00;67994.34;10034625;28;20047;-70
2023/05/04 09:16:41;;;;;;;12.93;5.78;;;;;;;-146.18;100.00;67994.34;10053494;28;20044;-70
2023/05/04 09:21:39;;;;;;;8.57;5.32;;;;;;;-146.18;100.00;67994.34;10036780;28;20044;-70
2023/05/04 09:26:36;;;;;;;7.53;4.72;;;;;;;-146.18;100.00;67994.34;10023892;28;20055;-70
2023/05/04 09:31:50;;;;;;;7.50;5.30;;;;;;;-146.18;100.00;67994.34;10048434;28;20134;-70
2023/05/04 09:37:00;;;;;;;5.68;5.10;;;;;;;-146.18;100.00;67994.34;10057236;28;20055;-70
2023/05/04 09:41:57;;;;;;;6.15;4.80;;;;;;;-146.18;100.00;67994.34;10059546;28;20062;-70
2023/05/04 09:46:57;;;;;;;9.85;5.32;;;;;;;-146.18;100.00;67994.34;10065049;28;20679;-70
2023/05/04 09:52:01;;;;;;;7.13;4.80;;;;;;;-146.18;100.00;67994.34;10061003;28;20082;-70
2023/05/04 09:57:13;;;;;;;10.18;5.00;;;;;;;-146.18;100.00;67994.34;10061488;28;20059;-70
2023/05/04 10:02:12;;;;;;;11.40;5.88;;;;;;;-146.18;100.00;67994.34;10058719;28;20524;-67
2023/05/04 10:07:19;;;;;;;8.93;5.50;;;;;;;-146.18;100.00;67994.34;10070647;28;20047;-67
2023/05/04 10:12:16;;;;;;;7.90;5.20;;;;;;;-146.18;100.00;67994.34;10070927;28;20134;-68
2023/05/04 10:17:41;;;;;;;7.07;5.13;;;;;;;-146.18;100.00;67994.34;10052225;28;20422;-68
2023/05/04 10:22:58;;;;;;;7.60;5.43;;;;;;;-146.18;100.00;67994.34;10043145;28;20074;-67
2023/05/04 10:28:13;;;;;;;8.60;5.78;;;;;;;-146.18;100.00;67994.34;10062580;28;20130;-67
2023/05/04 10:33:11;;;;;;;8.98;5.57;;;;;;;-146.18;100.00;67994.34;10032995;28;20079;-67
2023/05/04 10:38:07;;;;;;;8.55;5.90;;;;;;;-146.18;100.00;67994.34;10030885;28;20055;-66
2023/05/04 10:43:07;;;;;;;9.10;6.45;;;;;;;-146.18;100.00;67994.34;10052933;28;20083;-67
2023/05/04 10:48:04;;;;;;;8.85;6.47;;;;;;;-146.18;100.00;67994.34;10053401;28;20053;-67
2023/05/04 10:53:01;;;;;;;8.25;6.00;;;;;;;-146.18;100.00;67994.34;10033016;28;20066;-67
2023/05/04 10:57:57;;;;;;;14.25;6.00;;;;;;;-146.18;100.00;67994.34;10038934;28;20147;-67
2023/05/04 11:03:02;;;;;;;7.45;5.80;;;;;;;-146.18;100.00;67994.34;10064115;28;20147;-67
2023/05/04 11:07:58;;;;;;;10.60;6.53;;;;;;;-146.18;100.00;67994.34;10052703;28;20143;-67
2023/05/04 11:13:01;;;;;;;6.50;5.80;;;;;;;-146.18;100.00;67994.34;10058880;28;20047;-66
2023/05/04 11:18:01;;;;;;;6.38;5.70;;;;;;;-146.18;100.00;67994.34;10066117;28;20047;-67
2023/05/04 11:22:57;;;;;;;8.18;5.60;;;;;;;-146.18;100.00;67994.34;10049804;28;20099;-66
2023/05/04 11:27:55;;;;;;;6.57;5.90;;;;;;;-146.18;100.00;67994.34;10028121;28;20584;-66
2023/05/04 11:32:52;;;;;;;7.50;5.63;;;;;;;-146.18;100.00;67994.34;10015666;29;20130;-66
2023/05/04 11:37:49;;;;;;;8.15;6.13;;;;;;;-146.18;100.00;67994.34;10016908;28;20075;-67
2023/05/04 11:42:48;;;;;;;6.53;5.90;;;;;;;-146.18;100.00;67994.34;10027441;28;20047;-66
2023/05/04 11:47:46;;;;;;;8.50;5.70;;;;;;;-146.18;100.00;67994.34;10011440;28;20508;-66
2023/05/04 11:52:43;;;;;;;6.30;5.40;;;;;;;-146.18;100.00;67994.34;10039977;28;20051;-66
2023/05/04 11:57:40;;;;;;;6.65;5.63;;;;;;;-146.18;100.00;67994.34;10065070;28;21034;-66
2023/05/04 12:02:37;;;;;;;6.18;5.15;;;;;;;-146.18;100.00;67994.34;10063271;28;20047;-67
2023/05/04 12:07:35;;;;;;;10.50;5.72;;;;;;;-146.18;100.00;67994.34;10053695;28;20055;-66
2023/05/04 12:12:35;;;;;;;9.63;5.47;;;;;;;-146.18;100.00;67994.34;10047294;28;20052;-66
2023/05/04 12:17:42;;;;;;;6.13;5.10;;;;;;;-146.18;100.00;67994.34;10037017;28;20051;-67
2023/05/04 12:22:39;;;;;;;5.95;5.38;;;;;;;-146.18;100.00;67994.34;10019623;28;20099;-66
2023/05/04 12:27:40;;;;;;;8.90;5.90;;;;;;;-146.18;100.00;67994.34;10021777;28;20051;-67
2023/05/04 12:32:41;;;;;;;6.63;5.45;;;;;;;-146.18;100.00;67994.34;10019603;28;20502;-66
2023/05/04 12:37:38;;;;;;;6.60;5.35;;;;;;;-146.18;100.00;67994.34;10019273;28;20067;-66
2023/05/04 12:42:34;;;;;;;5.95;5.40;;;;;;;-146.18;100.00;67994.34;10014221;28;20050;-66
2023/05/04 12:47:31;;;;;;;6.28;5.68;;;;;;;-146.18;100.00;67994.34;10019372;28;20056;-67
2023/05/04 12:52:27;;;;;;;6.93;5.60;;;;;;;-146.18;100.00;67994.34;10015573;28;20106;-67
2023/05/04 12:57:24;;;;;;;7.72;5.35;;;;;;;-146.18;100.00;67994.34;10016542;28;20052;-67
2023/05/04 13:02:23;;;;;;;10.15;5.53;;;;;;;-146.18;100.00;67994.34;10028259;28;20040;-67
2023/05/04 13:07:19;;;;;;;8.25;5.40;;;;;;;-146.18;100.00;67994.34;10021481;28;20636;-66
2023/05/04 13:12:16;;;;;;;6.38;5.43;;;;;;;-146.18;100.00;67994.34;10026530;28;20047;-66
2023/05/04 13:17:13;;;;;;;8.02;6.28;;;;;;;-146.18;100.00;67994.34;10019017;28;20506;-67
2023/05/04 13:22:10;;;;;;;8.38;5.35;;;;;;;-146.18;100.00;67994.34;10022036;28;20051;-66
2023/05/04 13:27:06;;;;;;;6.38;5.38;;;;;;;-146.18;100.00;67994.34;10022541;28;20048;-66
2023/05/04 13:32:03;;;;;;;9.43;5.93;;;;;;;-146.18;100.00;67994.34;10026417;28;20058;-66
2023/05/04 13:36:59;;;;;;;6.95;5.10;;;;;;;-146.18;100.00;67994.34;10023540;28;20051;-67
2023/05/04 13:41:56;;;;;;;8.63;5.15;;;;;;;-146.18;100.00;67994.34;10012202;28;20056;-68
2023/05/04 13:46:52;;;;;;;6.63;5.00;;;;;;;-146.18;100.00;67994.34;10026645;28;20052;-68
2023/05/04 13:51:49;;;;;;;8.25;5.15;;;;;;;-146.18;100.00;67994.34;10039519;28;20537;-67
2023/05/04 13:56:45;;;;;;;7.32;5.07;;;;;;;-146.18;100.00;67994.34;10055413;28;20576;-67
2023/05/04 14:01:41;;;;;;;11.82;5.88;;;;;;;-146.18;100.00;67994.34;10070671;28;20147;-67
2023/05/04 14:06:38;;;;;;;10.43;5.75;;;;;;;-146.18;100.00;67994.34;10069630;28;20138;-67
2023/05/04 14:11:35;;;;;;;8.65;5.60;;;;;;;-146.18;100.00;67994.34;10056283;28;20039;-67
2023/05/04 14:16:31;;;;;;;8.18;5.30;;;;;;;-146.18;100.00;67994.34;10045641;28;20044;-67
2023/05/04 14:21:29;;;;;;;9.48;5.65;;;;;;;-146.18;100.00;67994.34;10035530;28;20130;-68
2023/05/04 14:26:26;;;;;;;7.40;5.85;;;;;;;-146.18;100.00;67994.34;10023717;28;20461;-68
2023/05/04 14:31:22;;;;;;;8.50;5.78;;;;;;;-146.18;100.00;67994.34;10031847;28;20494;-67
2023/05/04 14:36:19;;;;;;;7.78;5.00;;;;;;;-146.18;100.00;67994.34;10028387;28;20047;-68
2023/05/04 14:41:16;;;;;;;8.23;5.50;;;;;;;-146.18;100.00;67994.34;10038016;28;20130;-67
2023/05/04 14:46:12;;;;;;;7.97;5.90;;;;;;;-146.18;100.00;67994.34;10061189;28;20491;-68
2023/05/04 14:51:11;;;;;;;5.72;5.18;;;;;;;-146.18;100.00;67994.34;10061799;28;20094;-67
2023/05/04 14:56:07;;;;;;;6.25;4.88;;;;;;;-146.18;100.00;67994.34;10024081;28;20126;-67
2023/05/04 15:01:04;;;;;;;7.15;5.10;;;;;;;-146.18;100.00;67994.34;10022983;28;20058;-68
2023/05/04 15:06:02;;;;;;;11.07;5.53;;;;;;;-146.18;100.00;67994.34;10019353;28;20617;-68
2023/05/04 15:11:00;;;;;;;6.75;5.00;;;;;;;-146.18;100.00;67994.34;10022182;29;20055;-67
2023/05/04 15:15:56;;;;;;;6.40;4.95;;;;;;;-146.18;100.00;67994.34;10026037;28;20071;-69
2023/05/04 15:20:53;;;;;;;6.28;5.40;;;;;;;-146.18;100.00;67994.34;10065372;28;20136;-69
2023/05/04 15:25:49;;;;;;;5.70;5.10;;;;;;;-146.18;100.00;67994.34;10055582;28;20071;-69
2023/05/04 15:30:46;;;;;;;7.15;5.60;;;;;;;-146.18;100.00;67994.34;10044277;28;20043;-69
2023/05/04 15:35:42;;;;;;;6.85;4.95;;;;;;;-146.18;100.00;67994.34;10027359;28;20098;-69
2023/05/04 15:40:39;;;;;;;5.53;4.80;;;;;;;-146.18;100.00;67994.34;10025897;29;20145;-69
2023/05/04 15:45:35;;;;;;;7.60;5.00;;;;;;;-146.18;100.00;67994.34;10025024;28;20080;-68
2023/05/04 15:50:32;;;;;;;9.07;6.05;;;;;;;-146.18;100.00;67994.34;10024373;28;20522;-69
2023/05/04 15:55:28;;;;;;;7.47;5.72;;;;;;;-146.18;100.00;67994.34;10024478;28;20055;-68
2023/05/04 16:00:26;;;;;;;8.55;6.03;;;;;;;-146.18;100.00;67994.34;10024914;28;20126;-68
2023/05/04 16:05:24;;;;;;;8.00;5.60;;;;;;;-146.18;100.00;67994.34;10029189;28;20051;-69
2023/05/04 16:10:21;;;;;;;6.45;5.68;;;;;;;-146.18;100.00;67994.34;10021474;28;20434;-68
2023/05/04 16:15:18;;;;;;;7.30;6.57;;;;;;;-146.18;100.00;67994.34;10013725;28;20066;-69
2023/05/04 16:20:14;;;;;;;14.00;7.20;;;;;;;-146.18;100.00;67994.34;10020442;28;20055;-68
2023/05/04 16:25:11;;;;;;;8.90;6.35;;;;;;;-146.18;100.00;67994.34;10038975;28;20077;-68
2023/05/04 16:30:08;;;;;;;9.52;6.43;;;;;;;-146.18;100.00;67994.34;10055063;28;20221;-68
2023/05/04 16:35:06;;;;;;;12.07;7.35;;;;;;;-146.18;100.00;67994.34;10051170;28;20051;-68
2023/05/04 16:40:12;;;;;;;10.55;6.25;;;;;;;-146.18;100.00;67994.34;10050846;28;20073;-68
2023/05/04 16:45:12;;;;;;;6.88;5.60;;;;;;;-146.18;100.00;67994.34;10041746;28;20593;-69
2023/05/04 16:50:10;;;;;;;8.32;5.75;;;;;;;-146.18;100.00;67994.34;10048736;28;20051;-68
2023/05/04 16:55:08;;;;;;;11.27;6.93;;;;;;;-146.18;100.00;67994.34;10052064;28;20055;-68
2023/05/04 17:00:09;;;;;;;11.07;6.32;;;;;;;-146.18;100.00;67994.34;10052631;28;20461;-68
2023/05/04 17:05:08;;;;;;;10.32;6.22;;;;;;;-146.18;100.00;67994.34;10017641;28;20056;-68
2023/05/04 17:10:06;;;;;;;10.70;6.47;;;;;;;-146.18;100.00;67994.34;10018901;28;20051;-68
2023/05/04 17:15:05;;;;;;;9.05;6.03;;;;;;;-146.18;100.00;67994.34;10044901;28;20051;-68
2023/05/04 17:20:01;;;;;;;12.68;5.95;;;;;;;-146.18;100.00;67994.34;10057951;28;20051;-68
2023/05/04 17:24:58;;;;;;;10.80;5.63;;;;;;;-146.18;100.00;67994.34;10059069;28;20437;-68
2023/05/04 17:29:54;;;;;;;13.85;6.47;;;;;;;-146.18;100.00;67994.34;10012218;28;20510;-68
2023/05/04 17:34:52;;;;;;;13.48;6.03;;;;;;;-146.18;100.00;67994.34;10028850;28;20086;-68
2023/05/04 17:39:48;;;;;;;8.32;6.13;;;;;;;-146.18;100.00;67994.34;10033290;28;20063;-68
2023/05/04 17:44:45;;;;;;;9.70;6.38;;;;;;;-146.18;100.00;67994.34;10030160;28;20134;-68
2023/05/04 17:49:41;;;;;;;11.65;6.35;;;;;;;-146.18;100.00;67994.34;10028700;28;20146;-68
2023/05/04 17:54:38;;;;;;;14.05;6.82;;;;;;;-146.18;100.00;67994.34;10060562;28;20521;-67
2023/05/04 17:59:34;;;;;;;10.35;6.00;;;;;;;-146.18;100.00;67994.34;10070320;28;20798;-68
2023/05/04 18:04:31;;;;;;;8.25;6.45;;;;;;;-146.18;100.00;67994.34;10063572;28;20051;-68
2023/05/04 18:09:28;;;;;;;12.20;7.20;;;;;;;-146.18;100.00;67994.34;10055945;28;20043;-68
2023/05/04 18:14:24;;;;;;;15.65;7.20;;;;;;;-146.18;100.00;67994.34;10065423;28;20047;-68
2023/05/04 18:19:23;;;;;;;7.55;5.78;;;;;;;-146.18;100.00;67994.34;10027884;28;20148;-68
2023/05/04 18:24:28;;;;;;;10.82;6.90;;;;;;;-146.18;100.00;67994.34;10052591;28;20070;-68
2023/05/04 18:29:28;;;;;;;7.22;5.50;;;;;;;-146.18;100.00;67994.34;10063823;28;20529;-68
2023/05/04 18:34:25;;;;;;;11.35;6.10;;;;;;;-146.18;100.00;67994.34;10076881;28;20057;-68
2023/05/04 18:39:23;;;;;;;11.63;6.00;;;;;;;-146.18;100.00;67994.34;10064316;28;20524;-68
2023/05/04 18:44:20;;;;;;;9.63;5.95;;;;;;;-146.18;100.00;67994.34;10072799;28;20094;-68
2023/05/04 18:49:16;;;;;;;11.00;5.93;;;;;;;-146.18;100.00;67994.34;10026984;28;20040;-67
2023/05/04 18:54:14;;;;;;;12.82;6.22;;;;;;;-146.18;100.00;67994.34;10031097;28;20086;-68
2023/05/04 18:59:10;;;;;;;7.97;5.82;;;;;;;-146.18;100.00;67994.34;10038813;28;20409;-67
2023/05/04 19:04:07;;;;;;;13.65;6.65;;;;;;;-146.18;100.00;67994.34;10033084;28;20456;-67
2023/05/04 19:09:05;;;;;;;12.23;5.82;;;;;;;-146.18;100.00;67994.34;10056075;28;20051;-68
2023/05/04 19:14:01;;;;;;;12.70;5.90;;;;;;;-146.18;100.00;67994.34;10064448;28;20565;-67
2023/05/04 19:18:58;;;;;;;10.90;5.97;;;;;;;-146.18;100.00;67994.34;10027400;28;20126;-68
2023/05/04 19:23:54;;;;;;;10.27;5.63;;;;;;;-146.18;100.00;67994.34;10028085;28;20051;-67
2023/05/04 19:28:51;;;;;;;9.40;5.53;;;;;;;-146.18;100.00;67994.34;10029661;28;20574;-67
2023/05/04 19:33:48;;;;;;;10.38;5.53;;;;;;;-146.18;100.00;67994.34;10060657;28;20366;-68
2023/05/04 19:38:44;;;;;;;8.07;5.82;;;;;;;-146.18;100.00;67994.34;10064804;28;20046;-66
2023/05/04 19:43:43;;;;;;;9.32;6.30;;;;;;;-146.18;100.00;67994.34;10023873;28;20047;-69
2023/05/04 19:48:40;;;;;;;9.88;6.32;;;;;;;-146.18;100.00;67994.34;10027741;28;20047;-73
2023/05/04 19:53:37;;;;;;;11.00;6.50;;;;;;;-146.18;100.00;67994.34;10027922;28;20047;-68
2023/05/04 19:58:33;;;;;;;9.48;5.82;;;;;;;-146.18;100.00;67994.34;10026279;28;20040;-69
2023/05/04 20:03:29;;;;;;;17.08;6.50;;;;;;;-146.18;100.00;67994.34;10058300;28;20132;-68
2023/05/04 20:08:26;;;;;;;9.68;5.50;;;;;;;-146.18;100.00;67994.34;10064422;28;20110;-68
2023/05/04 20:13:24;;;;;;;12.95;6.70;;;;;;;-146.18;100.00;67994.34;10055802;28;20142;-68
2023/05/04 20:18:20;;;;;;;13.15;6.28;;;;;;;-146.18;100.00;67994.34;10055416;28;20046;-69
2023/05/04 20:23:17;;;;;;;7.97;6.05;;;;;;;-146.18;100.00;67994.34;10056113;28;20051;-69
2023/05/04 20:28:13;;;;;;;12.95;6.40;;;;;;;-146.18;100.00;67994.34;10054078;28;20051;-69
2023/05/04 20:33:10;;;;;;;11.88;6.45;;;;;;;-146.18;100.00;67994.34;10036742;28;20139;-69
2023/05/04 20:38:07;;;;;;;13.30;7.03;;;;;;;-146.18;100.00;67994.34;10031207;28;20099;-69
2023/05/04 20:43:04;;;;;;;9.35;6.80;;;;;;;-146.18;100.00;67994.34;10024717;28;20536;-68
2023/05/04 20:48:02;;;;;;;9.05;5.90;;;;;;;-146.18;100.00;67994.34;10046087;28;20501;-68
2023/05/04 20:53:01;;;;;;;13.52;6.53;;;;;;;-146.18;100.00;67994.34;10066297;28;20723;-68
2023/05/04 20:57:58;;;;;;;11.70;6.25;;;;;;;-146.18;100.00;67994.34;10057953;28;20079;-67
2023/05/04 21:02:54;;;;;;;12.43;5.80;;;;;;;-146.18;100.00;67994.34;10055266;28;20079;-66
2023/05/04 21:07:51;;;;;;;14.48;7.20;;;;;;;-146.18;100.00;67994.34;10071413;28;20110;-66
2023/05/04 21:12:47;;;;;;;15.35;7.18;;;;;;;-146.18;100.00;67994.34;10047076;28;20081;-67
2023/05/04 21:17:44;;;;;;;8.95;5.47;;;;;;;-146.18;100.00;67994.34;10033006;28;20043;-69
2023/05/04 21:22:41;;;;;;;14.90;7.03;;;;;;;-146.18;100.00;67994.34;10037689;28;20050;-68
2023/05/04 21:27:37;;;;;;;9.35;4.95;;;;;;;-146.18;100.00;67994.34;10032361;28;20284;-69
2023/05/04 21:32:34;;;;;;;11.32;5.47;;;;;;;-146.18;100.00;67994.34;10029957;28;20039;-69
2023/05/04 21:37:31;;;;;;;11.88;6.03;;;;;;;-146.18;100.00;67994.34;10057496;28;20043;-69
2023/05/04 21:42:27;;;;;;;7.88;5.60;;;;;;;-146.18;100.00;67994.34;10064202;28;20051;-69
2023/05/04 21:47:24;;;;;;;12.85;5.47;;;;;;;-146.18;100.00;67994.34;10062788;28;20043;-69
2023/05/04 21:52:21;;;;;;;8.18;4.95;;;;;;;-146.18;100.00;67994.34;10068139;28;20063;-69
2023/05/04 21:57:18;;;;;;;9.05;5.13;;;;;;;-146.18;100.00;67994.34;10064907;28;20567;-71
2023/05/04 22:02:14;;;;;;;8.98;4.75;;;;;;;-146.18;100.00;67994.34;10074284;28;20118;-70
2023/05/04 22:07:11;;;;;;;8.63;4.50;;;;;;;-146.18;100.00;67994.34;10057770;28;20052;-69